Time;durP1;ratioP1;P1;durP2;ratioP2;P2;SDS_P1;SDS_P2;PMS_P1;PMS_P2;Temp;Humidity;BMP_temperature;BMP_pressure;BME280_temperature;BME280_humidity;BME280_pressure;Samples;Min_cycle;Max_cycle;Signal;HPM_P1;HPM_P2
2023/11/01 00:01:36;;;;;;;0.40;0.30;;;20.90;65.00;;;;;;5101163;28;20031;-34
2023/11/01 00:04:02;;;;;;;0.30;0.30;;;20.80;64.60;;;;;;5095563;28;20721;-34
2023/11/01 00:06:28;;;;;;;0.40;0.30;;;20.80;64.10;;;;;;5095700;28;20047;-34
2023/11/01 00:08:56;;;;;;;0.57;0.47;;;20.80;64.10;;;;;;5101399;28;20054;-34
2023/11/01 00:11:22;;;;;;;0.40;0.30;;;20.80;63.90;;;;;;5093312;28;20042;-34
2023/11/01 00:13:49;;;;;;;0.75;0.40;;;20.70;63.70;;;;;;5098598;28;20030;-34
2023/11/01 00:16:16;;;;;;;0.43;0.40;;;20.80;64.10;;;;;;5088790;28;20043;-34
2023/11/01 00:18:42;;;;;;;0.50;0.40;;;20.90;64.10;;;;;;5093435;28;20036;-33
2023/11/01 00:21:08;;;;;;;1.55;0.40;;;20.90;64.30;;;;;;5092781;28;20028;-34
2023/11/01 00:23:34;;;;;;;0.60;0.47;;;20.90;63.70;;;;;;5107044;28;20020;-34
2023/11/01 00:26:01;;;;;;;1.47;0.40;;;20.80;63.60;;;;;;5097299;28;20040;-35
2023/11/01 00:28:28;;;;;;;0.40;0.40;;;20.80;63.70;;;;;;5095151;28;20318;-34
2023/11/01 00:30:54;;;;;;;0.45;0.30;;;20.80;63.80;;;;;;5103825;28;20085;-34
2023/11/01 00:33:21;;;;;;;0.55;0.30;;;20.80;63.40;;;;;;5085788;28;20039;-35
2023/11/01 00:35:47;;;;;;;0.40;0.40;;;20.80;63.60;;;;;;5086399;28;20028;-34
2023/11/01 00:38:14;;;;;;;0.40;0.35;;;20.90;63.40;;;;;;5089869;28;20032;-34
2023/11/01 00:40:40;;;;;;;0.30;0.30;;;20.90;63.50;;;;;;5096069;28;20040;-35
2023/11/01 00:43:06;;;;;;;0.68;0.40;;;20.80;63.20;;;;;;5089686;28;20037;-35
2023/11/01 00:45:33;;;;;;;0.45;0.45;;;20.80;63.20;;;;;;5099217;28;20047;-34
2023/11/01 00:47:59;;;;;;;1.38;0.40;;;20.80;63.20;;;;;;5091622;28;20024;-33
2023/11/01 00:50:25;;;;;;;0.65;0.50;;;20.80;63.00;;;;;;5101199;28;20036;-35
2023/11/01 00:52:51;;;;;;;0.70;0.43;;;20.70;62.80;;;;;;5095821;28;20036;-35
2023/11/01 00:55:17;;;;;;;0.60;0.40;;;20.80;62.80;;;;;;5095939;28;20032;-33
2023/11/01 00:57:46;;;;;;;0.55;0.40;;;20.90;62.90;;;;;;5099528;28;20498;-33
2023/11/01 01:00:13;;;;;;;0.30;0.30;;;20.90;62.90;;;;;;5089764;28;20805;-33
2023/11/01 01:02:39;;;;;;;0.50;0.50;;;20.80;62.70;;;;;;5091745;28;20028;-34
2023/11/01 01:05:05;;;;;;;0.73;0.45;;;20.80;62.70;;;;;;5099438;28;20036;-34
2023/11/01 01:07:31;;;;;;;0.60;0.40;;;20.80;62.60;;;;;;5101311;28;20039;-34
2023/11/01 01:09:57;;;;;;;0.40;0.40;;;20.70;62.40;;;;;;5102785;28;20864;-34
2023/11/01 01:12:24;;;;;;;0.57;0.50;;;20.70;62.40;;;;;;5098647;28;20031;-34
2023/11/01 01:14:50;;;;;;;0.50;0.35;;;20.70;62.40;;;;;;5097534;28;20121;-34
2023/11/01 01:17:16;;;;;;;0.65;0.40;;;20.80;62.40;;;;;;5099582;28;20035;-34
2023/11/01 01:19:42;;;;;;;0.40;0.40;;;20.90;62.20;;;;;;5103281;28;20061;-34
2023/11/01 01:22:08;;;;;;;0.50;0.40;;;20.90;62.20;;;;;;5103021;28;20059;-34
2023/11/01 01:24:35;;;;;;;0.60;0.45;;;20.80;62.10;;;;;;5101777;28;20028;-34
2023/11/01 01:27:01;;;;;;;0.52;0.40;;;20.70;61.80;;;;;;5093534;28;20040;-34
2023/11/01 01:29:27;;;;;;;0.50;0.47;;;20.70;61.90;;;;;;5090044;28;20058;-34
2023/11/01 01:31:53;;;;;;;0.68;0.55;;;20.70;61.90;;;;;;5095896;28;20031;-34
2023/11/01 01:34:20;;;;;;;0.50;0.50;;;20.60;61.70;;;;;;5100141;28;20035;-35
2023/11/01 01:36:46;;;;;;;0.40;0.40;;;20.70;61.80;;;;;;5098194;28;20119;-34
2023/11/01 01:39:12;;;;;;;0.70;0.52;;;20.80;61.70;;;;;;5094572;28;20028;-34
2023/11/01 01:41:39;;;;;;;0.75;0.50;;;20.80;61.70;;;;;;5094299;28;20458;-34
2023/11/01 01:44:05;;;;;;;0.60;0.50;;;20.70;62.30;;;;;;5089152;28;20060;-34
2023/11/01 01:46:31;;;;;;;0.60;0.60;;;20.70;61.40;;;;;;5090732;28;20040;-34
2023/11/01 01:48:58;;;;;;;1.48;0.60;;;20.60;61.20;;;;;;5097618;28;20140;-34
2023/11/01 01:51:24;;;;;;;0.75;0.40;;;20.60;61.10;;;;;;5098943;28;20024;-33
2023/11/01 01:53:50;;;;;;;0.55;0.50;;;20.70;61.00;;;;;;5091921;28;20038;-34
2023/11/01 01:56:16;;;;;;;0.47;0.40;;;20.70;60.90;;;;;;5095074;28;20036;-34
2023/11/01 01:58:43;;;;;;;0.73;0.52;;;20.70;61.00;;;;;;5091739;28;20021;-33
2023/11/01 02:01:09;;;;;;;0.50;0.50;;;20.70;60.90;;;;;;5096201;28;20034;-34
2023/11/01 02:03:36;;;;;;;0.67;0.50;;;20.60;60.50;;;;;;5093887;28;20051;-34
2023/11/01 02:06:02;;;;;;;1.45;0.60;;;20.50;60.60;;;;;;5101484;28;20036;-34
2023/11/01 02:08:28;;;;;;;0.75;0.60;;;20.50;60.50;;;;;;5101073;28;20048;-34
2023/11/01 02:10:55;;;;;;;0.47;0.47;;;20.60;60.30;;;;;;5095240;28;20034;-34
2023/11/01 02:13:21;;;;;;;0.60;0.60;;;20.70;60.20;;;;;;5098749;28;20040;-34
2023/11/01 02:15:48;;;;;;;0.80;0.80;;;20.70;60.40;;;;;;5090965;28;20028;-38
2023/11/01 02:18:14;;;;;;;;;;;20.60;60.30;;;;;;5100573;28;20028;-34
2023/11/01 02:20:44;;;;;;;0.40;0.40;;;20.60;60.10;;;;;;5093886;28;19958;-34
2023/11/01 02:23:16;;;;;;;0.30;0.30;;;20.50;60.10;;;;;;5091296;28;20115;-34
2023/11/01 02:25:43;;;;;;;0.40;0.40;;;20.60;60.00;;;;;;5094873;28;20036;-34
2023/11/01 02:28:11;;;;;;;0.52;0.40;;;20.70;59.90;;;;;;5099608;28;20043;-34
2023/11/01 02:30:39;;;;;;;0.50;0.40;;;20.70;60.30;;;;;;5100816;28;20185;-34
2023/11/01 02:33:06;;;;;;;0.45;0.40;;;20.60;60.20;;;;;;5094232;28;20035;-34
2023/11/01 02:35:32;;;;;;;0.50;0.40;;;20.60;60.00;;;;;;5100391;28;20024;-34
2023/11/01 02:37:58;;;;;;;0.60;0.50;;;20.50;60.20;;;;;;5101572;28;20020;-34
2023/11/01 02:40:24;;;;;;;0.50;0.40;;;20.50;60.00;;;;;;5089441;28;20043;-34
2023/11/01 02:42:55;;;;;;;0.40;0.30;;;20.60;60.00;;;;;;5102842;28;20028;-35
2023/11/01 02:45:21;;;;;;;0.40;0.30;;;20.70;59.90;;;;;;5102527;28;20088;-34
2023/11/01 02:47:50;;;;;;;0.93;0.50;;;20.70;60.20;;;;;;5099052;28;20405;-34
2023/11/01 02:50:16;;;;;;;0.47;0.40;;;20.60;59.80;;;;;;5097553;28;20686;-34
2023/11/01 02:52:43;;;;;;;0.50;0.30;;;20.60;59.90;;;;;;5097118;28;20020;-34
2023/11/01 02:55:13;;;;;;;0.40;0.40;;;20.50;60.00;;;;;;5104124;28;20016;-34
2023/11/01 02:57:39;;;;;;;0.50;0.30;;;20.50;59.70;;;;;;5098077;28;20035;-34
2023/11/01 03:00:07;;;;;;;0.43;0.40;;;20.60;59.70;;;;;;5100343;28;20047;-34
2023/11/01 03:02:34;;;;;;;0.85;0.40;;;20.70;59.90;;;;;;5089811;28;20082;-34
2023/11/01 03:05:00;;;;;;;0.32;0.32;;;20.60;59.70;;;;;;5097878;28;20763;-34
2023/11/01 03:07:26;;;;;;;0.40;0.40;;;20.60;59.80;;;;;;5103575;28;20447;-34
2023/11/01 03:09:53;;;;;;;0.38;0.38;;;20.50;59.60;;;;;;5102944;28;20020;-34
2023/11/01 03:12:19;;;;;;;0.50;0.50;;;20.40;59.70;;;;;;5104135;28;20056;-34
2023/11/01 03:14:45;;;;;;;0.40;0.40;;;20.50;59.60;;;;;;5101119;28;20111;-34
2023/11/01 03:17:12;;;;;;;0.38;0.30;;;20.60;59.60;;;;;;5101579;28;20047;-34
2023/11/01 03:19:38;;;;;;;0.60;0.40;;;20.70;59.50;;;;;;5101822;28;20035;-34
2023/11/01 03:22:04;;;;;;;1.13;0.50;;;20.60;59.70;;;;;;5100408;28;20035;-34
2023/11/01 03:24:31;;;;;;;0.50;0.40;;;20.60;59.50;;;;;;5101998;28;20028;-34
2023/11/01 03:27:00;;;;;;;0.90;0.50;;;20.50;59.40;;;;;;5094790;28;20032;-34
2023/11/01 03:29:26;;;;;;;0.30;0.30;;;20.50;59.50;;;;;;5095126;28;20043;-34
2023/11/01 03:31:53;;;;;;;0.53;0.50;;;20.60;59.40;;;;;;5099496;28;20032;-34
2023/11/01 03:34:19;;;;;;;0.40;0.35;;;20.70;59.40;;;;;;5102983;28;20024;-34
2023/11/01 03:36:45;;;;;;;1.23;0.40;;;20.70;59.30;;;;;;5100584;28;20076;-34
2023/11/01 03:39:14;;;;;;;0.50;0.30;;;20.60;59.50;;;;;;5094821;28;20036;-34
2023/11/01 03:41:43;;;;;;;0.63;0.50;;;20.60;59.40;;;;;;5104772;28;20077;-34
2023/11/01 03:44:09;;;;;;;0.52;0.40;;;20.50;59.20;;;;;;5095926;28;20074;-34
2023/11/01 03:46:36;;;;;;;0.30;0.30;;;20.60;59.30;;;;;;5096391;28;20048;-34
2023/11/01 03:49:02;;;;;;;0.65;0.43;;;20.70;59.30;;;;;;5104258;28;20060;-33
2023/11/01 03:51:29;;;;;;;0.50;0.38;;;20.70;59.50;;;;;;5096514;28;20042;-34
2023/11/01 03:53:55;;;;;;;0.50;0.50;;;20.60;59.10;;;;;;5108146;28;20032;-34
2023/11/01 03:56:22;;;;;;;0.43;0.38;;;20.60;59.20;;;;;;5096876;28;20284;-34
2023/11/01 03:58:48;;;;;;;0.45;0.40;;;20.50;59.20;;;;;;5104202;28;20571;-34
2023/11/01 04:01:14;;;;;;;0.67;0.50;;;20.50;59.00;;;;;;5100696;28;20066;-34
2023/11/01 04:03:40;;;;;;;0.40;0.40;;;20.60;59.00;;;;;;5094874;28;20063;-34
2023/11/01 04:06:08;;;;;;;0.30;0.30;;;20.70;58.90;;;;;;5097217;28;20032;-35
2023/11/01 04:08:34;;;;;;;0.50;0.40;;;20.70;59.20;;;;;;5103630;28;20055;-34
2023/11/01 04:11:00;;;;;;;0.60;0.43;;;20.60;59.10;;;;;;5102447;28;20028;-34
2023/11/01 04:13:26;;;;;;;0.52;0.40;;;20.60;59.00;;;;;;5102598;28;20512;-34
2023/11/01 04:15:54;;;;;;;0.60;0.47;;;20.50;59.00;;;;;;5103925;28;20565;-34
2023/11/01 04:18:20;;;;;;;0.65;0.40;;;20.50;58.80;;;;;;5102910;28;20405;-34
2023/11/01 04:20:46;;;;;;;0.30;0.30;;;20.60;58.70;;;;;;5100099;28;20036;-34
2023/11/01 04:23:12;;;;;;;0.30;0.30;;;20.70;58.80;;;;;;5094087;28;20058;-33
2023/11/01 04:25:38;;;;;;;0.40;0.40;;;20.70;59.00;;;;;;5092407;28;20033;-34
2023/11/01 04:28:06;;;;;;;0.52;0.30;;;20.60;58.90;;;;;;5088451;28;20037;-34
2023/11/01 04:30:38;;;;;;;0.60;0.55;;;20.50;58.80;;;;;;5096563;28;20103;-35
2023/11/01 04:33:08;;;;;;;0.40;0.30;;;20.50;58.70;;;;;;5094431;28;20647;-33
2023/11/01 04:35:37;;;;;;;0.30;0.30;;;20.60;58.60;;;;;;5092594;28;20028;-34
2023/11/01 04:38:03;;;;;;;1.45;0.30;;;20.70;58.40;;;;;;5097496;28;20055;-34
2023/11/01 04:40:31;;;;;;;0.63;0.50;;;20.70;58.70;;;;;;5099095;28;20047;-38
2023/11/01 04:42:57;;;;;;;0.47;0.40;;;20.60;58.50;;;;;;5096477;28;20055;-34
2023/11/01 04:45:23;;;;;;;0.43;0.30;;;20.60;58.60;;;;;;5093505;28;20048;-34
2023/11/01 04:47:50;;;;;;;0.33;0.30;;;20.50;58.30;;;;;;5094883;28;20032;-34
2023/11/01 04:50:16;;;;;;;0.30;0.30;;;20.50;58.30;;;;;;5100007;28;20039;-34
2023/11/01 04:52:42;;;;;;;0.63;0.30;;;20.60;58.00;;;;;;5106644;28;20028;-34
2023/11/01 04:55:10;;;;;;;0.50;0.28;;;20.70;58.20;;;;;;5094680;28;20035;-34
2023/11/01 04:57:36;;;;;;;0.30;0.30;;;20.70;58.30;;;;;;5094580;28;20028;-34
2023/11/01 05:00:09;;;;;;;0.50;0.47;;;20.60;58.10;;;;;;5103227;28;20032;-34
2023/11/01 05:02:36;;;;;;;1.30;0.30;;;20.50;58.10;;;;;;5100506;28;20070;-34
2023/11/01 05:05:06;;;;;;;0.50;0.40;;;20.50;58.10;;;;;;5095867;28;20040;-34
2023/11/01 05:07:33;;;;;;;0.40;0.40;;;20.50;58.00;;;;;;5094434;28;20044;-35
2023/11/01 05:09:59;;;;;;;;;;;20.60;57.80;;;;;;5096386;28;20024;-34
2023/11/01 05:12:25;;;;;;;0.40;0.40;;;20.70;58.10;;;;;;5093173;28;19908;-34
2023/11/01 05:14:51;;;;;;;0.52;0.30;;;20.60;57.90;;;;;;5090921;28;20036;-34
2023/11/01 05:17:17;;;;;;;0.52;0.50;;;20.60;57.80;;;;;;5092280;28;20050;-33
2023/11/01 05:19:43;;;;;;;0.30;0.30;;;20.50;57.80;;;;;;5091756;28;20028;-34
2023/11/01 05:22:10;;;;;;;0.60;0.30;;;20.50;57.80;;;;;;5091361;28;20028;-34
2023/11/01 05:24:36;;;;;;;0.30;0.30;;;20.60;57.70;;;;;;5095097;28;20133;-34
2023/11/01 05:27:02;;;;;;;0.40;0.40;;;20.70;57.60;;;;;;5096215;28;20119;-34
2023/11/01 05:29:28;;;;;;;0.35;0.35;;;20.60;57.90;;;;;;5092359;28;20031;-34
2023/11/01 05:31:55;;;;;;;0.53;0.40;;;20.50;57.80;;;;;;5085602;28;20029;-34
2023/11/01 05:34:22;;;;;;;0.55;0.43;;;20.50;57.80;;;;;;5099335;28;20447;-34
2023/11/01 05:36:49;;;;;;;0.55;0.30;;;20.40;57.60;;;;;;5086401;28;20113;-34
2023/11/01 05:39:15;;;;;;;0.63;0.52;;;20.60;57.50;;;;;;5099934;28;20545;-34
2023/11/01 05:41:42;;;;;;;0.47;0.40;;;20.70;57.40;;;;;;5092847;28;20036;-35
2023/11/01 05:44:08;;;;;;;1.30;0.32;;;20.70;57.60;;;;;;5097486;28;20044;-34
2023/11/01 05:46:35;;;;;;;0.45;0.40;;;20.60;57.30;;;;;;5084219;28;20065;-34
2023/11/01 05:49:01;;;;;;;0.63;0.50;;;20.60;57.50;;;;;;5091106;28;20024;-34
2023/11/01 05:51:27;;;;;;;0.60;0.35;;;20.50;57.40;;;;;;5099772;28;20058;-34
2023/11/01 05:53:53;;;;;;;0.70;0.30;;;20.40;57.30;;;;;;5106029;28;20051;-33
2023/11/01 05:56:20;;;;;;;0.40;0.40;;;20.60;57.40;;;;;;5091039;28;20033;-34
2023/11/01 05:58:46;;;;;;;0.63;0.40;;;20.70;57.40;;;;;;5102333;28;20568;-34
2023/11/01 06:01:12;;;;;;;0.30;0.30;;;20.70;58.10;;;;;;5100487;28;20565;-34
2023/11/01 06:03:38;;;;;;;0.70;0.60;;;20.60;57.50;;;;;;5100632;28;20040;-33
2023/11/01 06:06:05;;;;;;;0.40;0.35;;;20.50;57.50;;;;;;5087756;28;20043;-34
2023/11/01 06:08:31;;;;;;;0.40;0.40;;;20.50;57.60;;;;;;5098594;28;20043;-34
2023/11/01 06:10:57;;;;;;;0.85;0.40;;;20.60;57.60;;;;;;5089351;28;20120;-34
2023/11/01 06:13:23;;;;;;;0.45;0.43;;;20.70;57.50;;;;;;5094711;28;20092;-34
2023/11/01 06:15:51;;;;;;;0.25;0.25;;;20.70;57.50;;;;;;5094605;28;20028;-34
2023/11/01 06:18:17;;;;;;;0.40;0.40;;;20.70;57.50;;;;;;5099838;28;20032;-33
2023/11/01 06:20:44;;;;;;;0.33;0.30;;;20.60;57.50;;;;;;5094660;28;20046;-34
2023/11/01 06:23:10;;;;;;;0.57;0.47;;;20.50;57.50;;;;;;5099923;28;20032;-35
2023/11/01 06:25:37;;;;;;;0.70;0.38;;;20.60;57.50;;;;;;5087922;28;20032;-34
2023/11/01 06:28:03;;;;;;;0.30;0.20;;;20.70;57.50;;;;;;5090624;28;20028;-34
2023/11/01 06:30:29;;;;;;;0.40;0.30;;;20.70;57.60;;;;;;5092149;28;20081;-34
2023/11/01 06:32:55;;;;;;;0.32;0.32;;;20.60;58.10;;;;;;5095317;28;20032;-34
2023/11/01 06:35:21;;;;;;;0.52;0.47;;;20.60;57.50;;;;;;5100558;28;20042;-34
2023/11/01 06:37:48;;;;;;;0.47;0.30;;;20.50;57.30;;;;;;5101182;28;20058;-34
2023/11/01 06:40:15;;;;;;;0.40;0.30;;;20.50;57.40;;;;;;5100931;28;20036;-34
2023/11/01 06:42:41;;;;;;;0.33;0.30;;;20.60;57.50;;;;;;5100234;28;20032;-35
2023/11/01 06:45:07;;;;;;;0.65;0.40;;;20.70;57.20;;;;;;5095137;28;20043;-34
2023/11/01 06:47:36;;;;;;;0.50;0.45;;;20.70;57.50;;;;;;5091272;28;20057;-34
2023/11/01 06:50:03;;;;;;;0.40;0.30;;;20.60;57.30;;;;;;5097346;28;20028;-34
2023/11/01 06:52:29;;;;;;;0.43;0.40;;;20.60;57.30;;;;;;5103895;28;20036;-34
2023/11/01 06:54:55;;;;;;;0.63;0.50;;;20.50;57.40;;;;;;5094915;28;20085;-34
2023/11/01 06:57:22;;;;;;;0.68;0.45;;;20.60;57.40;;;;;;5099807;28;20028;-35
2023/11/01 06:59:48;;;;;;;0.50;0.40;;;20.70;57.30;;;;;;5088100;28;20091;-35
2023/11/01 07:02:14;;;;;;;0.47;0.47;;;20.70;57.30;;;;;;5088839;28;20060;-35
2023/11/01 07:04:40;;;;;;;0.82;0.55;;;20.70;57.50;;;;;;5101019;28;20060;-34
2023/11/01 07:07:07;;;;;;;0.50;0.40;;;20.60;57.30;;;;;;5100501;28;20039;-34
2023/11/01 07:09:33;;;;;;;0.40;0.40;;;20.60;57.30;;;;;;5100412;28;20034;-34
2023/11/01 07:11:59;;;;;;;0.52;0.30;;;20.60;57.30;;;;;;5093651;28;20073;-34
2023/11/01 07:14:25;;;;;;;0.40;0.40;;;20.70;57.20;;;;;;5099315;28;20027;-34
2023/11/01 07:16:51;;;;;;;0.52;0.45;;;20.80;57.30;;;;;;5100841;28;20033;-34
2023/11/01 07:19:17;;;;;;;0.68;0.50;;;20.70;57.30;;;;;;5093123;28;20519;-34
2023/11/01 07:21:46;;;;;;;0.50;0.40;;;20.60;57.50;;;;;;5103553;28;20123;-34
2023/11/01 07:24:13;;;;;;;0.63;0.52;;;20.60;57.40;;;;;;5098240;28;20028;-34
2023/11/01 07:26:39;;;;;;;0.50;0.50;;;20.50;57.40;;;;;;5097606;28;20044;-34
2023/11/01 07:29:06;;;;;;;0.40;0.30;;;20.60;57.20;;;;;;5103303;28;20024;-34
2023/11/01 07:31:32;;;;;;;0.40;0.40;;;20.70;57.10;;;;;;5094512;28;20058;-34
2023/11/01 07:33:58;;;;;;;0.77;0.60;;;20.70;57.30;;;;;;5101502;28;20020;-34
2023/11/01 07:36:24;;;;;;;0.43;0.30;;;20.60;57.20;;;;;;5103883;28;20139;-33
2023/11/01 07:38:50;;;;;;;0.40;0.30;;;20.60;57.30;;;;;;5098643;28;20024;-33
2023/11/01 07:41:17;;;;;;;0.65;0.50;;;20.50;57.30;;;;;;5101411;28;20036;-34
2023/11/01 07:43:43;;;;;;;2.17;0.45;;;20.60;56.90;;;;;;5098967;28;20055;-33
2023/11/01 07:46:10;;;;;;;0.50;0.40;;;20.70;57.00;;;;;;5096872;28;20071;-34
2023/11/01 07:48:36;;;;;;;0.50;0.40;;;20.80;57.10;;;;;;5100729;28;20034;-34
2023/11/01 07:51:08;;;;;;;0.40;0.40;;;20.70;57.00;;;;;;5100545;28;20063;-34
2023/11/01 07:53:35;;;;;;;0.95;0.50;;;20.60;57.10;;;;;;5106909;28;20273;-34
2023/11/01 07:56:01;;;;;;;0.33;0.30;;;20.50;57.10;;;;;;5096867;28;20055;-33
2023/11/01 07:58:29;;;;;;;0.60;0.40;;;20.50;57.00;;;;;;5096226;28;20063;-34
2023/11/01 08:00:55;;;;;;;0.55;0.45;;;20.70;57.00;;;;;;5103745;28;20049;-34
2023/11/01 08:03:23;;;;;;;0.40;0.40;;;20.80;56.90;;;;;;5095282;28;20029;-35
2023/11/01 08:05:50;;;;;;;0.90;0.55;;;20.70;57.10;;;;;;5098398;28;20043;-35
2023/11/01 08:08:16;;;;;;;0.50;0.50;;;20.70;57.00;;;;;;5096845;28;20028;-35
2023/11/01 08:10:42;;;;;;;0.40;0.40;;;20.60;56.90;;;;;;5096960;28;20028;-35
2023/11/01 08:13:10;;;;;;;0.57;0.40;;;20.50;56.90;;;;;;5091326;28;20033;-33
2023/11/01 08:15:36;;;;;;;0.60;0.40;;;20.60;56.90;;;;;;5089696;28;20382;-35
2023/11/01 08:18:02;;;;;;;0.50;0.40;;;20.70;56.90;;;;;;5097122;28;20039;-34
2023/11/01 08:20:30;;;;;;;0.93;0.40;;;20.80;56.60;;;;;;5097339;28;20032;-35
2023/11/01 08:22:59;;;;;;;0.50;0.47;;;20.70;57.00;;;;;;5105335;28;20055;-34
2023/11/01 08:25:25;;;;;;;0.50;0.43;;;20.60;56.90;;;;;;5098393;28;20500;-34
2023/11/01 08:27:51;;;;;;;0.90;0.40;;;20.50;56.80;;;;;;5095761;28;20306;-34
2023/11/01 08:30:18;;;;;;;0.57;0.50;;;20.50;56.70;;;;;;5099030;28;20553;-34
2023/11/01 08:32:44;;;;;;;1.03;0.40;;;20.60;56.80;;;;;;5099668;28;20273;-34
2023/11/01 08:35:10;;;;;;;0.50;0.50;;;20.70;56.60;;;;;;5099834;28;20043;-34
2023/11/01 08:37:37;;;;;;;0.53;0.50;;;20.70;57.00;;;;;;5097493;28;20291;-34
2023/11/01 08:40:04;;;;;;;0.47;0.40;;;20.70;56.80;;;;;;5098277;28;20020;-34
2023/11/01 08:42:30;;;;;;;0.57;0.45;;;20.50;56.70;;;;;;5094647;28;20064;-35
2023/11/01 08:44:57;;;;;;;0.52;0.43;;;20.50;56.80;;;;;;5086702;28;20062;-34
2023/11/01 08:47:32;;;;;;;0.38;0.38;;;20.60;56.80;;;;;;5099643;28;20091;-34
2023/11/01 08:49:59;;;;;;;0.70;0.40;;;20.70;56.60;;;;;;5091420;28;20020;-35
2023/11/01 08:52:25;;;;;;;0.43;0.43;;;20.80;56.40;;;;;;5100908;28;20036;-35
2023/11/01 08:54:51;;;;;;;1.17;0.40;;;20.80;56.80;;;;;;5102998;28;20032;-34
2023/11/01 08:57:22;;;;;;;1.13;0.30;;;20.60;56.60;;;;;;5096427;28;20033;-35
2023/11/01 08:59:52;;;;;;;0.50;0.40;;;20.50;56.60;;;;;;5101738;28;20081;-34
2023/11/01 09:02:19;;;;;;;0.47;0.47;;;20.50;56.50;;;;;;5101512;28;20058;-34
2023/11/01 09:04:45;;;;;;;;;;;20.60;56.60;;;;;;5097284;28;20111;-34
2023/11/01 09:07:12;;;;;;;0.50;0.40;;;20.80;56.50;;;;;;5104051;28;19912;-35
2023/11/01 09:09:38;;;;;;;0.90;0.68;;;20.70;56.80;;;;;;5103154;28;20017;-34
2023/11/01 09:12:05;;;;;;;0.30;0.30;;;20.60;56.60;;;;;;5097055;28;20029;-34
2023/11/01 09:14:31;;;;;;;0.65;0.40;;;20.60;56.70;;;;;;5087757;28;20057;-35
2023/11/01 09:16:57;;;;;;;0.40;0.40;;;20.50;56.60;;;;;;5089526;28;20031;-34
2023/11/01 09:19:23;;;;;;;0.60;0.40;;;20.60;56.40;;;;;;5100069;28;20405;-34
2023/11/01 09:21:49;;;;;;;0.47;0.40;;;20.70;56.30;;;;;;5098968;28;20020;-34
2023/11/01 09:24:15;;;;;;;0.80;0.50;;;20.80;56.10;;;;;;5109432;28;20036;-34
2023/11/01 09:26:41;;;;;;;0.50;0.50;;;20.70;56.40;;;;;;5096276;28;20050;-34
2023/11/01 09:29:08;;;;;;;0.63;0.50;;;20.60;56.20;;;;;;5096398;28;20745;-34
2023/11/01 09:31:37;;;;;;;0.40;0.40;;;20.50;56.20;;;;;;5096736;28;20038;-34
2023/11/01 09:34:03;;;;;;;0.50;0.50;;;20.50;56.20;;;;;;5095972;28;20027;-34
2023/11/01 09:36:29;;;;;;;0.43;0.40;;;20.60;56.40;;;;;;5089492;28;20071;-34
2023/11/01 09:38:55;;;;;;;0.50;0.50;;;20.70;56.10;;;;;;5102749;28;20024;-34
2023/11/01 09:41:27;;;;;;;0.57;0.52;;;20.70;56.30;;;;;;5100119;28;20031;-34
2023/11/01 09:43:59;;;;;;;0.50;0.50;;;20.60;56.20;;;;;;5083802;28;20044;-33
2023/11/01 09:46:26;;;;;;;0.40;0.30;;;20.60;56.20;;;;;;5091411;28;20036;-34
2023/11/01 09:48:56;;;;;;;0.52;0.52;;;20.50;56.30;;;;;;5091792;28;20032;-34
2023/11/01 09:51:22;;;;;;;0.50;0.50;;;20.60;56.10;;;;;;5091039;28;20036;-34
2023/11/01 09:53:48;;;;;;;0.43;0.40;;;20.70;56.00;;;;;;5103455;28;20024;-33
2023/11/01 09:56:14;;;;;;;0.43;0.40;;;20.80;55.80;;;;;;5097101;28;20083;-35
2023/11/01 09:58:41;;;;;;;0.68;0.50;;;20.70;56.30;;;;;;5093537;28;20039;-34
2023/11/01 10:01:08;;;;;;;0.68;0.50;;;20.60;56.00;;;;;;5095591;28;20025;-34
2023/11/01 10:03:35;;;;;;;0.50;0.43;;;20.60;56.00;;;;;;5102625;28;20035;-34
2023/11/01 10:06:01;;;;;;;0.57;0.47;;;20.50;56.40;;;;;;5093907;28;20062;-35
2023/11/01 10:08:27;;;;;;;0.50;0.50;;;20.60;56.10;;;;;;5098453;28;20280;-34
2023/11/01 10:10:59;;;;;;;0.50;0.40;;;20.70;56.40;;;;;;5090692;28;20496;-34
2023/11/01 10:13:28;;;;;;;0.38;0.38;;;20.80;55.60;;;;;;5082720;28;20047;-34
2023/11/01 10:15:54;;;;;;;0.40;0.35;;;20.70;55.80;;;;;;5082785;28;20432;-35
2023/11/01 10:18:21;;;;;;;0.50;0.50;;;20.60;55.80;;;;;;5089668;28;20020;-35
2023/11/01 10:20:47;;;;;;;0.80;0.60;;;20.50;55.80;;;;;;5090614;28;20029;-34
2023/11/01 10:23:13;;;;;;;0.40;0.40;;;20.50;55.70;;;;;;5104954;28;20036;-34
2023/11/01 10:25:43;;;;;;;0.60;0.43;;;20.60;55.80;;;;;;5093997;28;20095;-33
2023/11/01 10:28:13;;;;;;;0.80;0.50;;;20.70;55.50;;;;;;5093056;28;20036;-34
2023/11/01 10:30:43;;;;;;;0.50;0.50;;;20.70;55.80;;;;;;5094819;28;20511;-34
2023/11/01 10:33:10;;;;;;;0.65;0.57;;;20.60;55.70;;;;;;5094468;28;20048;-34
2023/11/01 10:35:36;;;;;;;0.45;0.43;;;20.50;55.50;;;;;;5092994;28;20074;-33
2023/11/01 10:38:02;;;;;;;0.75;0.55;;;20.50;55.50;;;;;;5095376;28;20038;-34
2023/11/01 10:40:29;;;;;;;0.70;0.40;;;20.60;55.60;;;;;;5095011;28;20038;-34
2023/11/01 10:42:59;;;;;;;0.60;0.40;;;20.60;55.30;;;;;;5083773;28;20041;-34
2023/11/01 10:45:25;;;;;;;0.68;0.63;;;20.80;55.20;;;;;;5092635;28;20036;-34
2023/11/01 10:47:52;;;;;;;0.75;0.70;;;20.70;55.60;;;;;;5089999;28;20067;-34
2023/11/01 10:50:19;;;;;;;0.50;0.50;;;20.60;55.50;;;;;;5091401;28;20024;-33
2023/11/01 10:52:46;;;;;;;0.73;0.40;;;20.50;55.30;;;;;;5096848;28;20036;-34
2023/11/01 10:55:13;;;;;;;0.50;0.50;;;20.50;55.30;;;;;;5089203;28;20062;-34
2023/11/01 10:57:39;;;;;;;0.70;0.47;;;20.60;55.30;;;;;;5097615;28;20031;-34
2023/11/01 11:00:16;;;;;;;0.70;0.60;;;20.70;55.30;;;;;;5095750;28;20058;-34
2023/11/01 11:02:56;;;;;;;0.90;0.50;;;20.70;55.50;;;;;;5092160;28;20130;-34
2023/11/01 11:05:26;;;;;;;0.85;0.50;;;20.60;55.40;;;;;;5102578;28;20051;-34
2023/11/01 11:07:54;;;;;;;2.05;0.40;;;20.50;55.40;;;;;;5097944;28;20060;-34
2023/11/01 11:10:19;;;;;;;;;;;20.50;55.20;;;;;;5095728;28;20047;-34
2023/11/01 11:12:47;;;;;;;0.40;0.40;;;20.60;55.30;;;;;;5098498;28;19916;-34
2023/11/01 11:15:13;;;;;;;0.60;0.50;;;20.70;55.10;;;;;;5091024;28;20028;-34
2023/11/01 11:17:40;;;;;;;0.60;0.55;;;20.70;55.10;;;;;;5086172;28;20032;-34
2023/11/01 11:20:10;;;;;;;0.50;0.50;;;20.70;55.20;;;;;;5083880;28;20032;-34
2023/11/01 11:23:01;;;;;;;0.57;0.47;;;20.60;55.10;;;;;;5091482;28;20500;-34
2023/11/01 11:25:45;;;;;;;0.80;0.50;;;20.50;55.20;;;;;;5095630;28;20096;-34
2023/11/01 11:28:37;;;;;;;0.50;0.50;;;20.50;55.10;;;;;;5093836;28;20047;-34
2023/11/01 11:31:05;;;;;;;0.80;0.50;;;20.60;54.90;;;;;;5092924;28;20028;-34
2023/11/01 11:33:39;;;;;;;0.55;0.50;;;20.70;55.00;;;;;;5102812;28;20092;-34
2023/11/01 11:36:14;;;;;;;0.52;0.40;;;20.60;54.80;;;;;;5105029;28;20031;-34
2023/11/01 11:38:50;;;;;;;0.50;0.40;;;20.50;54.90;;;;;;5095082;28;20027;-33
2023/11/01 11:41:49;;;;;;;0.60;0.50;;;20.40;54.90;;;;;;5103367;28;20036;-34
2023/11/01 11:44:19;;;;;;;0.40;0.40;;;20.50;55.50;;;;;;5003623;28;20094;-36
2023/11/01 11:46:49;;;;;;;0.45;0.43;;;20.70;54.70;;;;;;4994811;28;20058;-34
2023/11/01 11:49:22;;;;;;;0.40;0.40;;;20.70;54.90;;;;;;5006787;28;20026;-34
2023/11/01 11:51:56;;;;;;;0.40;0.40;;;20.60;54.90;;;;;;5006952;28;20046;-35
2023/11/01 11:54:26;;;;;;;0.60;0.60;;;20.60;54.90;;;;;;5004601;28;20050;-33
2023/11/01 11:56:53;;;;;;;0.70;0.52;;;20.40;55.00;;;;;;5003957;28;20030;-33
2023/11/01 11:59:24;;;;;;;0.55;0.40;;;20.50;54.80;;;;;;5002411;28;20049;-34
2023/11/01 12:01:51;;;;;;;0.57;0.50;;;20.60;54.80;;;;;;5003460;28;20023;-33
2023/11/01 12:04:17;;;;;;;0.70;0.50;;;20.70;54.80;;;;;;5002889;28;20038;-34
2023/11/01 12:06:50;;;;;;;0.55;0.52;;;20.70;55.00;;;;;;5004103;28;20133;-35
2023/11/01 12:09:17;;;;;;;0.52;0.50;;;20.60;54.80;;;;;;5008048;28;20040;-35
2023/11/01 12:11:53;;;;;;;0.80;0.50;;;20.50;54.70;;;;;;5001913;28;20044;-35
2023/11/01 12:14:21;;;;;;;0.70;0.50;;;20.50;55.00;;;;;;5002089;28;20041;-34
2023/11/01 12:16:47;;;;;;;0.75;0.60;;;20.60;54.90;;;;;;5003178;28;20089;-33
2023/11/01 12:19:21;;;;;;;0.50;0.47;;;20.60;54.70;;;;;;5023083;28;20047;-34
2023/11/01 12:21:54;;;;;;;1.08;0.57;;;20.80;54.60;;;;;;5102765;28;20065;-34
2023/11/01 12:24:41;;;;;;;0.80;0.60;;;20.80;54.80;;;;;;5094450;28;20036;-35
2023/11/01 12:27:11;;;;;;;0.55;0.55;;;20.60;54.80;;;;;;5100341;28;20085;-35
2023/11/01 12:29:47;;;;;;;0.45;0.40;;;20.50;54.80;;;;;;5096127;28;20074;-35
2023/11/01 12:32:16;;;;;;;0.70;0.55;;;20.50;54.70;;;;;;5103210;28;20036;-35
2023/11/01 12:34:48;;;;;;;0.52;0.50;;;20.60;54.70;;;;;;5096112;28;20102;-34
2023/11/01 12:37:19;;;;;;;0.50;0.50;;;20.70;54.60;;;;;;5100340;28;20051;-34
2023/11/01 12:40:04;;;;;;;0.60;0.60;;;20.70;54.70;;;;;;5096839;28;20084;-34
2023/11/01 12:42:32;;;;;;;0.82;0.50;;;20.60;54.70;;;;;;5095226;28;20036;-35
2023/11/01 12:44:58;;;;;;;0.98;0.60;;;20.50;54.60;;;;;;5103559;28;20071;-34
2023/11/01 12:47:24;;;;;;;0.77;0.40;;;20.50;54.50;;;;;;5093781;28;20036;-34
2023/11/01 12:49:52;;;;;;;0.50;0.50;;;20.50;54.80;;;;;;5100835;28;20028;-34